• Join FlightAware (Why Join?)
  • Login
  • US Flag 
05:17AM EDT


 

Airport Tracker/Info


-or-


 

Live Flight TrackerFlight Track Log ✈ SWA4021 ✈ 02-Mar-2013 ✈ KDCA - KSTL

Flight Track Log - Related Links

Times and Time Zones

All times are in EST time to prevent confusion due to time zone crossing. See the SWA4021 flight status page for this flight to view local times or setup timezone preferences in your user account.

Time Position Orientation Groundspeed Altitude Reporting Facility
EST Latitude Longitude Course Direction KTS MPH feet Rate Location/Type
12:37PM 38.8667 -77.0500 322° Northwest 149 171 1,200  Level Potomac TRACON
12:38PM 38.9000 -77.0833 322° Northwest 192 221 3,400 2,700 Climbing Potomac TRACON
12:39PM 38.9500 -77.1333 322° Northwest 235 270 6,400 3,420 Climbing Potomac TRACON
12:40PM 38.9833 -77.2000 303° West 258 297 10,000 3,480 Climbing Potomac TRACON
12:42PM 38.9831 -77.3994 270° West 324 373 15,800 2,580 Climbing Washington Center
12:43PM 38.9794 -77.5114 268° West 329 379 17,200 1,500 Climbing Washington Center
12:44PM 38.9794 -77.6425 270° West 344 396 18,900 2,100 Climbing Washington Center
12:45PM 38.9728 -77.7703 266° West 392 451 21,400 2,940 Climbing Washington Center
12:46PM 38.9681 -77.9169 268° West 411 473 24,700 2,640 Climbing Washington Center
12:47PM 38.9650 -78.0664 269° West 416 479 26,800 1,980 Climbing Washington Center
12:48PM 38.9597 -78.2211 268° West 428 493 28,800 1,800 Climbing Washington Center
12:49PM 38.9644 -78.3814 272° West 441 507 30,500 2,280 Climbing Washington Center
12:50PM 38.9689 -78.5419 272° West 448 516 33,400 2,820 Climbing Washington Center
12:51PM 38.9736 -78.6942 272° West 443 510 36,100 2,280 Climbing Washington Center
12:52PM 38.9781 -78.8358 272° West 425 489 38,100 1,440 Climbing Washington Center
12:53PM 38.9783 -78.9775 270° West 406 467 39,100 960 Climbing Washington Center
12:54PM 38.9847 -79.1219 273° West 406 467 40,000 420 Climbing Washington Center
12:55PM 38.9867 -79.2636 271° West 406 467 40,000  Level Washington Center
12:56PM 38.9903 -79.4108 272° West 406 467 40,000  Level Washington Center
12:57PM 39.0067 -79.5531 278° West 406 467 40,000  Level Washington Center
12:58PM 39.0222 -79.7064 277° West 430 495 40,000  Level Washington Center
12:59PM 39.0339 -79.8486 276° West 425 489 40,000  Level Washington Center
01:00PM 39.0478 -79.9911 277° West 413 475 40,000  Level Washington Center
01:01PM 39.0575 -80.1614 274° West 407 468 40,000  Level Indianapolis Center
01:02PM 39.0692 -80.3061 276° West 406 467 40,000  Level Indianapolis Center
01:03PM 39.0806 -80.4517 276° West 409 471 40,000  Level Indianapolis Center
01:04PM 39.0919 -80.5964 276° West 407 468 40,000  Level Indianapolis Center
01:05PM 39.1025 -80.7428 275° West 411 473 40,000  Level Indianapolis Center
01:06PM 39.1131 -80.8883 275° West 409 471 40,000  Level Indianapolis Center
01:07PM 39.1247 -81.0664 275° West 417 480 40,000  Level Indianapolis Center
01:08PM 39.1356 -81.2156 275° West 421 484 40,000  Level Indianapolis Center
01:09PM 39.1450 -81.3636 275° West 418 481 40,000  Level Indianapolis Center
01:10PM 39.1550 -81.5133 275° West 422 486 40,000  Level Indianapolis Center
01:11PM 39.1639 -81.6631 274° West 422 486 40,000  Level Indianapolis Center
01:12PM 39.1736 -81.8158 275° West 428 493 40,000  Level Indianapolis Center
01:13PM 39.1822 -81.9675 274° West 427 491 40,000  Level Indianapolis Center
01:15PM 39.1939 -82.1511 275° West 429 494 40,000  Level Indianapolis Center
01:16PM 39.2025 -82.3042 274° West 429 494 40,000  Level Indianapolis Center
01:17PM 39.2114 -82.4575 274° West 429 494 40,000  Level Indianapolis Center
01:18PM 39.2203 -82.6047 275° West 428 493 40,000  Level Indianapolis Center
01:19PM 39.2275 -82.7583 274° West 426 490 40,000  Level Indianapolis Center
01:20PM 39.2358 -82.9122 274° West 424 488 40,000  Level Indianapolis Center
01:21PM 39.2436 -83.0653 274° West 423 487 40,000  Level Indianapolis Center
01:22PM 39.2517 -83.2175 274° West 422 486 40,000  Level Indianapolis Center
01:23PM 39.2594 -83.3700 274° West 420 483 40,000  Level Indianapolis Center
01:24PM 39.2681 -83.5472 274° West 419 482 40,000  Level Indianapolis Center
01:25PM 39.2753 -83.6992 274° West 418 481 40,000  Level Indianapolis Center
01:26PM 39.2819 -83.8517 273° West 420 483 40,000  Level Indianapolis Center
01:27PM 39.2869 -84.0033 272° West 418 481 40,000  Level Indianapolis Center
01:28PM 39.2939 -84.1561 273° West 420 483 40,000  Level Indianapolis Center
01:29PM 39.3014 -84.3108 274° West 425 489 40,000  Level Indianapolis Center
01:30PM 39.3064 -84.4653 272° West 426 490 40,000  Level Indianapolis Center
01:31PM 39.3122 -84.6186 273° West 424 488 40,000  Level Indianapolis Center
01:32PM 39.3181 -84.7736 273° West 426 490 40,000  Level Indianapolis Center
01:33PM 39.3250 -84.9336 273° West 427 491 40,000  Level Indianapolis Center
01:34PM 39.3297 -85.0892 272° West 429 494 40,000  Level Indianapolis Center
01:35PM 39.3364 -85.2469 273° West 434 499 40,000  Level Indianapolis Center
01:36PM 39.3400 -85.4033 272° West 433 498 40,000  Level Indianapolis Center
01:37PM 39.3439 -85.5586 272° West 428 493 40,000  Level Indianapolis Center
01:38PM 39.3489 -85.7150 272° West 430 495 40,000  Level Indianapolis Center
01:39PM 39.3539 -85.8697 272° West 427 491 40,000  Level Indianapolis Center
01:40PM 39.3581 -86.0497 272° West 425 489 40,000  Level Indianapolis Center
01:41PM 39.3619 -86.2036 272° West 423 487 40,000  Level Indianapolis Center
01:42PM 39.3653 -86.3589 272° West 425 489 40,000  Level Indianapolis Center
01:43PM 39.3686 -86.5136 272° West 425 489 40,000  Level Indianapolis Center
01:44PM 39.3725 -86.6689 272° West 426 490 40,000  Level Indianapolis Center
01:45PM 39.3750 -86.8239 271° West 426 490 40,000  Level Indianapolis Center
01:46PM 39.3775 -86.9789 271° West 427 491 40,000  Level Indianapolis Center
01:47PM 39.3800 -87.1339 271° West 426 490 40,000 -420 Level Indianapolis Center
01:48PM 39.3831 -87.2881 272° West 427 491 39,200 -900 Descending Indianapolis Center
01:49PM 39.3844 -87.4425 271° West 427 491 38,200 -600 Descending Indianapolis Center
01:50PM 39.3883 -87.5986 272° West 429 494 38,000 -840 Descending Indianapolis Center
01:51PM 39.3883 -87.7531 270° West 428 493 36,600 -2,040 Descending Indianapolis Center
01:52PM 39.3900 -87.9069 271° West 426 490 33,900 -2,940 Descending Indianapolis Center
01:53PM 39.4181 -88.0572 284° West 434 499 30,600 -2,700 Descending Indianapolis Center
01:55PM 39.4489 -88.2158 284° West 418 481 28,100 -1,260 Descending Kansas City Center
01:56PM 39.4644 -88.3578 278° West 404 465 28,000 -60 Descending Kansas City Center
01:57PM 39.4094 -88.4822 240° Southwest 399 459 28,000  Level Kansas City Center
01:58PM 39.3428 -88.6278 239° Southwest 404 465 28,000 -480 Level Kansas City Center
01:59PM 39.2853 -88.7483 238° Southwest 398 458 27,100 -1,620 Descending Kansas City Center
02:00PM 39.2317 -88.8672 240° Southwest 390 449 24,800 -2,280 Descending Kansas City Center
02:01PM 39.1775 -88.9803 238° Southwest 378 435 22,500 -2,340 Descending Kansas City Center
02:02PM 39.1161 -89.1100 239° Southwest 361 415 20,000 -2,280 Descending Kansas City Center
02:03PM 39.0753 -89.2242 245° Southwest 353 406 17,900 -2,160 Descending Kansas City Center
02:03PM 39.0672 -89.2308 213° Southwest 362 417 16,900 -2,340 Descending FAA TRACON SMA TRACON (SMA)
02:04PM 39.0550 -89.2669 246° West 357 411 16,200 -2,100 Descending FAA TRACON SMA TRACON (SMA)
02:04PM 39.0483 -89.3044 257° West 353 406 15,500 -2,400 Descending FAA TRACON SMA TRACON (SMA)
02:04PM 39.0353 -89.3494 250° West 349 402 14,600 -2,400 Descending FAA TRACON SMA TRACON (SMA)
02:05PM 39.0275 -89.3856 255° West 344 396 13,900 -1,980 Descending FAA TRACON SMA TRACON (SMA)
02:05PM 39.0194 -89.4214 254° West 340 391 13,300 -2,100 Descending FAA TRACON SMA TRACON (SMA)
02:05PM 39.0097 -89.4656 254° West 335 386 12,500 -2,100 Descending FAA TRACON SMA TRACON (SMA)
02:06PM 39.0014 -89.5006 253° West 332 382 11,900 -1,980 Descending FAA TRACON SMA TRACON (SMA)
02:06PM 38.9911 -89.5342 249° West 330 380 11,200 -2,100 Descending FAA TRACON SMA TRACON (SMA)
02:06PM 38.9697 -89.5694 232° Southwest 326 375 10,500 -1,680 Descending FAA TRACON SMA TRACON (SMA)
02:07PM 38.9486 -89.5936 222° Southwest 326 375 10,100 -780 Descending FAA TRACON SMA TRACON (SMA)
02:07PM 38.9286 -89.6175 223° Southwest 322 371 10,000 -300 Descending FAA TRACON SMA TRACON (SMA)
02:07PM 38.9047 -89.6461 223° Southwest 311 358 9,900 -180 Descending FAA TRACON SMA TRACON (SMA)
02:08PM 38.8883 -89.6683 227° Southwest 292 336 9,900 -480 Level FAA TRACON SMA TRACON (SMA)
02:08PM 38.8711 -89.6900 224° Southwest 283 326 9,600 -900 Descending FAA TRACON SMA TRACON (SMA)
02:08PM 38.8542 -89.7108 224° Southwest 278 320 9,300 -1,080 Descending FAA TRACON SMA TRACON (SMA)
02:09PM 38.8339 -89.7364 224° Southwest 268 308 8,900 -1,200 Descending FAA TRACON SMA TRACON (SMA)
02:09PM 38.8172 -89.7556 222° Southwest 265 305 8,500 -1,500 Descending FAA TRACON SMA TRACON (SMA)
02:09PM 38.7939 -89.7786 218° Southwest 270 311 7,900 -1,500 Descending FAA TRACON SMA TRACON (SMA)
02:10PM 38.7747 -89.7969 217° Southwest 276 318 7,500 -1,200 Descending FAA TRACON SMA TRACON (SMA)
02:10PM 38.7553 -89.8150 216° Southwest 278 320 7,100 -780 Descending FAA TRACON SMA TRACON (SMA)
02:10PM 38.7375 -89.8333 219° Southwest 275 316 7,000 -300 Descending FAA TRACON SMA TRACON (SMA)
02:11PM 38.7150 -89.8547 217° Southwest 265 305 6,900 -180 Descending FAA TRACON SMA TRACON (SMA)
02:11PM 38.6983 -89.8708 217° Southwest 254 292 6,900 -480 Level FAA TRACON SMA TRACON (SMA)
02:11PM 38.6800 -89.8839 209° Southwest 247 284 6,600 -1,200 Descending FAA TRACON SMA TRACON (SMA)
02:12PM 38.6569 -89.8994 208° Southwest 245 282 6,100 -1,380 Descending FAA TRACON SMA TRACON (SMA)
02:12PM 38.6394 -89.9114 208° Southwest 240 276 5,700 -1,080 Descending FAA TRACON SMA TRACON (SMA)
02:12PM 38.6208 -89.9233 207° Southwest 237 273 5,400 -1,080 Descending FAA TRACON SMA TRACON (SMA)
02:13PM 38.5989 -89.9381 208° Southwest 232 267 5,000 -780 Descending FAA TRACON SMA TRACON (SMA)
02:13PM 38.5856 -89.9506 216° Southwest 217 250 4,900 -180 Descending FAA TRACON SMA TRACON (SMA)
02:13PM 38.5833 -89.9697 262° West 210 242 4,900  Level FAA TRACON SMA TRACON (SMA)
02:14PM 38.5894 -89.9922 289° West 178 205 4,900 -480 Level FAA TRACON SMA TRACON (SMA)
02:14PM 38.5964 -90.0092 298° West 173 199 4,600 -780 Descending FAA TRACON SMA TRACON (SMA)
02:14PM 38.6050 -90.0244 306° West 172 198 4,400 -300 Descending FAA TRACON SMA TRACON (SMA)
02:15PM 38.6147 -90.0442 302° West 171 197 4,400  Level FAA TRACON SMA TRACON (SMA)
02:15PM 38.6222 -90.0600 301° West 170 196 4,400  Level FAA TRACON SMA TRACON (SMA)
02:15PM 38.6308 -90.0756 305° West 171 197 4,400 -360 Level FAA TRACON SMA TRACON (SMA)
02:16PM 38.6403 -90.0950 302° West 171 197 4,200 -780 Descending FAA TRACON SMA TRACON (SMA)
02:16PM 38.6481 -90.1108 302° West 171 197 3,900 -900 Descending FAA TRACON SMA TRACON (SMA)
02:16PM 38.6556 -90.1269 301° West 171 197 3,600 -1,080 Descending FAA TRACON SMA TRACON (SMA)
02:17PM 38.6653 -90.1461 303° West 167 192 3,200 -1,080 Descending FAA TRACON SMA TRACON (SMA)
02:17PM 38.6728 -90.1611 303° West 166 191 2,900 -900 Descending FAA TRACON SMA TRACON (SMA)
02:17PM 38.6806 -90.1769 302° West 166 191 2,600 -900 Descending FAA TRACON SMA TRACON (SMA)
02:18PM 38.6892 -90.1942 303° West 155 178 2,300 -900 Descending FAA TRACON SMA TRACON (SMA)
02:18PM 38.6956 -90.2069 303° West 142 163 2,000 -780 Descending FAA TRACON SMA TRACON (SMA)
02:18PM 38.7011 -90.2194 300° West 130 150 1,800 -600 Descending FAA TRACON SMA TRACON (SMA)
02:19PM 38.7058 -90.2347 292° West 123 142 1,600 -600 Descending FAA TRACON SMA TRACON (SMA)
02:19PM 38.7106 -90.2458 299° West 120 138 1,400 -660 Descending FAA TRACON SMA TRACON (SMA)
02:19PM 38.7161 -90.2575 301° West 119 137 1,200 -780 Descending FAA TRACON SMA TRACON (SMA)
02:20PM 38.7228 -90.2708 303° West 118 136 900 -780 Descending FAA TRACON SMA TRACON (SMA)
02:20PM 38.7281 -90.2817 302° West 116 133 700 -480 Descending FAA TRACON SMA TRACON (SMA)
02:20PM 38.7308 -90.2869 304° West 116 133 600 -300 Descending FAA TRACON SMA TRACON (SMA)